sensor_id;sensor_type;location;lat;lon;timestamp;temperature;humidity
65207;SHT31;58477;48.072;11.970;2022-09-09T00:04:28;13.40;88.50
65207;SHT31;58477;48.072;11.970;2022-09-09T00:09:46;13.24;88.75
65207;SHT31;58477;48.072;11.970;2022-09-09T00:12:15;13.17;89.21
65207;SHT31;58477;48.072;11.970;2022-09-09T00:15:34;13.19;89.46
65207;SHT31;58477;48.072;11.970;2022-09-09T00:20:16;13.10;89.70
65207;SHT31;58477;48.072;11.970;2022-09-09T00:22:52;13.07;90.17
65207;SHT31;58477;48.072;11.970;2022-09-09T00:25:28;13.09;90.27
65207;SHT31;58477;48.072;11.970;2022-09-09T00:27:55;13.10;90.37
65207;SHT31;58477;48.072;11.970;2022-09-09T00:30:24;13.07;90.45
65207;SHT31;58477;48.072;11.970;2022-09-09T00:32:53;13.11;90.52
65207;SHT31;58477;48.072;11.970;2022-09-09T00:35:27;13.19;90.37
65207;SHT31;58477;48.072;11.970;2022-09-09T00:37:57;13.33;89.83
65207;SHT31;58477;48.072;11.970;2022-09-09T00:40:38;13.41;89.52
65207;SHT31;58477;48.072;11.970;2022-09-09T00:43:24;13.53;89.07
65207;SHT31;58477;48.072;11.970;2022-09-09T00:48:46;13.81;87.77
65207;SHT31;58477;48.072;11.970;2022-09-09T00:56:44;13.85;88.14
65207;SHT31;58477;48.072;11.970;2022-09-09T00:59:32;13.92;87.88
65207;SHT31;58477;48.072;11.970;2022-09-09T01:02:07;13.89;88.06
65207;SHT31;58477;48.072;11.970;2022-09-09T01:04:38;13.86;88.61
65207;SHT31;58477;48.072;11.970;2022-09-09T01:07:16;13.88;88.14
65207;SHT31;58477;48.072;11.970;2022-09-09T01:09:52;13.88;88.00
65207;SHT31;58477;48.072;11.970;2022-09-09T01:15:16;14.02;86.84
65207;SHT31;58477;48.072;11.970;2022-09-09T01:17:54;14.08;87.05
65207;SHT31;58477;48.072;11.970;2022-09-09T01:20:27;14.09;86.54
65207;SHT31;58477;48.072;11.970;2022-09-09T01:28:38;14.38;85.39
65207;SHT31;58477;48.072;11.970;2022-09-09T01:31:11;14.35;86.21
65207;SHT31;58477;48.072;11.970;2022-09-09T01:33:42;14.26;87.28
65207;SHT31;58477;48.072;11.970;2022-09-09T01:36:17;14.21;87.36
65207;SHT31;58477;48.072;11.970;2022-09-09T01:38:48;14.18;87.28
65207;SHT31;58477;48.072;11.970;2022-09-09T01:41:15;14.21;86.79
65207;SHT31;58477;48.072;11.970;2022-09-09T01:43:49;14.18;86.10
65207;SHT31;58477;48.072;11.970;2022-09-09T01:46:17;14.18;87.74
65207;SHT31;58477;48.072;11.970;2022-09-09T01:48:45;14.18;88.09
65207;SHT31;58477;48.072;11.970;2022-09-09T01:51:10;14.19;87.53
65207;SHT31;58477;48.072;11.970;2022-09-09T01:53:37;14.18;86.84
65207;SHT31;58477;48.072;11.970;2022-09-09T01:56:21;14.19;87.79
65207;SHT31;58477;48.072;11.970;2022-09-09T02:04:16;13.68;88.36
65207;SHT31;58477;48.072;11.970;2022-09-09T02:06:45;13.74;88.62
65207;SHT31;58477;48.072;11.970;2022-09-09T02:09:23;13.67;88.30
65207;SHT31;58477;48.072;11.970;2022-09-09T02:12:00;13.74;88.82
65207;SHT31;58477;48.072;11.970;2022-09-09T02:14:41;13.81;87.55
65207;SHT31;58477;48.072;11.970;2022-09-09T02:17:13;13.89;87.52
65207;SHT31;58477;48.072;11.970;2022-09-09T02:20:12;13.85;88.04
65207;SHT31;58477;48.072;11.970;2022-09-09T02:22:59;13.88;88.81
65207;SHT31;58477;48.072;11.970;2022-09-09T02:25:28;13.74;89.05
65207;SHT31;58477;48.072;11.970;2022-09-09T02:28:01;13.70;89.04
65207;SHT31;58477;48.072;11.970;2022-09-09T02:30:29;13.57;90.58
65207;SHT31;58477;48.072;11.970;2022-09-09T02:32:58;13.61;89.50
65207;SHT31;58477;48.072;11.970;2022-09-09T02:35:45;13.51;89.35
65207;SHT31;58477;48.072;11.970;2022-09-09T02:38:15;13.51;89.23
65207;SHT31;58477;48.072;11.970;2022-09-09T02:40:50;13.51;90.75
65207;SHT31;58477;48.072;11.970;2022-09-09T02:43:15;13.62;89.03
65207;SHT31;58477;48.072;11.970;2022-09-09T02:45:53;13.65;89.01
65207;SHT31;58477;48.072;11.970;2022-09-09T02:48:28;13.64;89.45
65207;SHT31;58477;48.072;11.970;2022-09-09T02:51:19;13.65;89.08
65207;SHT31;58477;48.072;11.970;2022-09-09T02:56:32;13.61;89.76
65207;SHT31;58477;48.072;11.970;2022-09-09T02:59:03;13.67;88.71
65207;SHT31;58477;48.072;11.970;2022-09-09T03:01:29;13.61;88.86
65207;SHT31;58477;48.072;11.970;2022-09-09T03:03:55;13.75;88.10
65207;SHT31;58477;48.072;11.970;2022-09-09T03:06:20;13.58;89.32
65207;SHT31;58477;48.072;11.970;2022-09-09T03:08:53;13.58;89.48
65207;SHT31;58477;48.072;11.970;2022-09-09T03:11:23;13.61;90.21
65207;SHT31;58477;48.072;11.970;2022-09-09T03:13:48;13.55;90.06
65207;SHT31;58477;48.072;11.970;2022-09-09T03:16:14;13.61;89.32
65207;SHT31;58477;48.072;11.970;2022-09-09T03:18:44;13.60;89.56
65207;SHT31;58477;48.072;11.970;2022-09-09T03:21:11;13.54;89.91
65207;SHT31;58477;48.072;11.970;2022-09-09T03:23:37;13.51;90.27
65207;SHT31;58477;48.072;11.970;2022-09-09T03:26:03;13.51;90.16
65207;SHT31;58477;48.072;11.970;2022-09-09T03:28:38;13.34;89.90
65207;SHT31;58477;48.072;11.970;2022-09-09T03:31:05;13.43;90.63
65207;SHT31;58477;48.072;11.970;2022-09-09T03:33:39;13.50;89.90
65207;SHT31;58477;48.072;11.970;2022-09-09T03:36:06;13.55;89.80
65207;SHT31;58477;48.072;11.970;2022-09-09T03:38:33;13.68;89.15
65207;SHT31;58477;48.072;11.970;2022-09-09T03:41:00;13.68;89.59
65207;SHT31;58477;48.072;11.970;2022-09-09T03:43:29;13.70;89.50
65207;SHT31;58477;48.072;11.970;2022-09-09T03:45:55;13.67;89.32
65207;SHT31;58477;48.072;11.970;2022-09-09T03:48:23;13.71;88.81
65207;SHT31;58477;48.072;11.970;2022-09-09T03:50:53;13.75;88.88
65207;SHT31;58477;48.072;11.970;2022-09-09T03:53:21;13.75;88.56
65207;SHT31;58477;48.072;11.970;2022-09-09T03:55:49;13.72;88.86
65207;SHT31;58477;48.072;11.970;2022-09-09T03:58:16;13.72;88.19
65207;SHT31;58477;48.072;11.970;2022-09-09T04:00:56;13.75;87.87
65207;SHT31;58477;48.072;11.970;2022-09-09T04:03:22;13.64;89.10
65207;SHT31;58477;48.072;11.970;2022-09-09T04:05:53;13.58;89.67
65207;SHT31;58477;48.072;11.970;2022-09-09T04:08:20;13.57;89.11
65207;SHT31;58477;48.072;11.970;2022-09-09T04:10:48;13.58;88.72
65207;SHT31;58477;48.072;11.970;2022-09-09T04:13:16;13.57;89.28
65207;SHT31;58477;48.072;11.970;2022-09-09T04:15:44;13.43;89.42
65207;SHT31;58477;48.072;11.970;2022-09-09T04:18:15;13.33;89.94
65207;SHT31;58477;48.072;11.970;2022-09-09T04:20:40;13.30;90.47
65207;SHT31;58477;48.072;11.970;2022-09-09T04:23:06;13.28;90.34
65207;SHT31;58477;48.072;11.970;2022-09-09T04:25:31;13.23;90.58
65207;SHT31;58477;48.072;11.970;2022-09-09T04:27:58;13.21;90.86
65207;SHT31;58477;48.072;11.970;2022-09-09T04:30:25;13.21;90.95
65207;SHT31;58477;48.072;11.970;2022-09-09T04:32:52;13.27;90.60
65207;SHT31;58477;48.072;11.970;2022-09-09T04:35:18;13.33;90.53
65207;SHT31;58477;48.072;11.970;2022-09-09T04:37:46;13.28;90.64
65207;SHT31;58477;48.072;11.970;2022-09-09T04:40:11;13.28;90.50
65207;SHT31;58477;48.072;11.970;2022-09-09T04:42:38;13.24;90.69
65207;SHT31;58477;48.072;11.970;2022-09-09T04:45:05;13.27;90.71
65207;SHT31;58477;48.072;11.970;2022-09-09T04:47:32;13.43;90.08
65207;SHT31;58477;48.072;11.970;2022-09-09T04:49:57;13.39;90.62
65207;SHT31;58477;48.072;11.970;2022-09-09T04:52:24;13.33;90.91
65207;SHT31;58477;48.072;11.970;2022-09-09T04:54:49;13.37;90.48
65207;SHT31;58477;48.072;11.970;2022-09-09T04:57:14;13.19;91.17
65207;SHT31;58477;48.072;11.970;2022-09-09T04:59:40;13.14;91.31
65207;SHT31;58477;48.072;11.970;2022-09-09T05:02:05;13.14;91.41
65207;SHT31;58477;48.072;11.970;2022-09-09T05:04:31;13.13;91.48
65207;SHT31;58477;48.072;11.970;2022-09-09T05:06:57;13.13;91.13
65207;SHT31;58477;48.072;11.970;2022-09-09T05:09:23;13.16;91.15
65207;SHT31;58477;48.072;11.970;2022-09-09T05:11:50;13.39;90.45
65207;SHT31;58477;48.072;11.970;2022-09-09T05:14:25;13.40;90.71
65207;SHT31;58477;48.072;11.970;2022-09-09T05:16:51;13.39;90.86
65207;SHT31;58477;48.072;11.970;2022-09-09T05:19:17;13.50;89.59
65207;SHT31;58477;48.072;11.970;2022-09-09T05:21:47;13.58;89.00
65207;SHT31;58477;48.072;11.970;2022-09-09T05:24:15;13.64;89.20
65207;SHT31;58477;48.072;11.970;2022-09-09T05:26:41;13.60;89.81
65207;SHT31;58477;48.072;11.970;2022-09-09T05:29:07;13.77;88.55
65207;SHT31;58477;48.072;11.970;2022-09-09T05:31:33;13.88;88.21
65207;SHT31;58477;48.072;11.970;2022-09-09T05:34:02;14.09;87.74
65207;SHT31;58477;48.072;11.970;2022-09-09T05:36:28;14.36;87.22
65207;SHT31;58477;48.072;11.970;2022-09-09T05:38:55;14.59;86.03
65207;SHT31;58477;48.072;11.970;2022-09-09T05:41:21;14.84;84.93
65207;SHT31;58477;48.072;11.970;2022-09-09T05:43:49;14.91;83.80
65207;SHT31;58477;48.072;11.970;2022-09-09T05:46:17;14.89;84.72
65207;SHT31;58477;48.072;11.970;2022-09-09T05:48:46;14.97;85.34
65207;SHT31;58477;48.072;11.970;2022-09-09T05:51:15;15.01;84.23
65207;SHT31;58477;48.072;11.970;2022-09-09T05:53:42;15.13;84.41
65207;SHT31;58477;48.072;11.970;2022-09-09T05:56:16;15.17;85.69
65207;SHT31;58477;48.072;11.970;2022-09-09T05:58:45;15.16;85.33
65207;SHT31;58477;48.072;11.970;2022-09-09T06:01:17;15.13;85.82
65207;SHT31;58477;48.072;11.970;2022-09-09T06:03:44;15.07;86.33
65207;SHT31;58477;48.072;11.970;2022-09-09T06:06:13;14.99;84.74
65207;SHT31;58477;48.072;11.970;2022-09-09T06:08:41;14.96;85.03
65207;SHT31;58477;48.072;11.970;2022-09-09T06:11:13;14.87;85.29
65207;SHT31;58477;48.072;11.970;2022-09-09T06:13:39;14.84;86.84
65207;SHT31;58477;48.072;11.970;2022-09-09T06:16:08;14.87;86.60
65207;SHT31;58477;48.072;11.970;2022-09-09T06:18:34;14.60;87.50
65207;SHT31;58477;48.072;11.970;2022-09-09T06:21:01;14.48;87.27
65207;SHT31;58477;48.072;11.970;2022-09-09T06:23:30;14.36;87.90
65207;SHT31;58477;48.072;11.970;2022-09-09T06:26:03;14.36;87.76
65207;SHT31;58477;48.072;11.970;2022-09-09T06:28:31;14.28;88.16
65207;SHT31;58477;48.072;11.970;2022-09-09T06:31:01;14.19;88.58
65207;SHT31;58477;48.072;11.970;2022-09-09T06:33:33;14.25;88.98
65207;SHT31;58477;48.072;11.970;2022-09-09T06:36:02;14.25;89.13
65207;SHT31;58477;48.072;11.970;2022-09-09T06:38:29;14.30;88.42
65207;SHT31;58477;48.072;11.970;2022-09-09T06:40:57;14.29;89.17
65207;SHT31;58477;48.072;11.970;2022-09-09T06:43:24;14.32;89.12
65207;SHT31;58477;48.072;11.970;2022-09-09T06:45:58;14.46;88.87
65207;SHT31;58477;48.072;11.970;2022-09-09T06:48:25;14.55;88.50
65207;SHT31;58477;48.072;11.970;2022-09-09T06:51:20;14.55;88.25
65207;SHT31;58477;48.072;11.970;2022-09-09T06:53:47;14.59;88.67
65207;SHT31;58477;48.072;11.970;2022-09-09T06:56:17;14.50;88.25
65207;SHT31;58477;48.072;11.970;2022-09-09T06:58:44;14.58;88.22
65207;SHT31;58477;48.072;11.970;2022-09-09T07:01:16;14.52;89.24
65207;SHT31;58477;48.072;11.970;2022-09-09T07:03:45;14.50;89.67
65207;SHT31;58477;48.072;11.970;2022-09-09T07:06:28;14.49;89.18
65207;SHT31;58477;48.072;11.970;2022-09-09T07:08:58;14.56;89.05
65207;SHT31;58477;48.072;11.970;2022-09-09T07:11:28;14.60;89.39
65207;SHT31;58477;48.072;11.970;2022-09-09T07:13:56;14.63;89.14
65207;SHT31;58477;48.072;11.970;2022-09-09T07:16:22;14.70;89.73
65207;SHT31;58477;48.072;11.970;2022-09-09T07:18:54;14.53;90.04
65207;SHT31;58477;48.072;11.970;2022-09-09T07:21:24;14.50;91.28
65207;SHT31;58477;48.072;11.970;2022-09-09T07:23:52;14.50;90.83
65207;SHT31;58477;48.072;11.970;2022-09-09T07:26:19;14.58;89.60
65207;SHT31;58477;48.072;11.970;2022-09-09T07:28:46;14.56;89.87
65207;SHT31;58477;48.072;11.970;2022-09-09T07:31:17;14.69;91.18
65207;SHT31;58477;48.072;11.970;2022-09-09T07:33:44;14.80;90.69
65207;SHT31;58477;48.072;11.970;2022-09-09T07:38:43;14.86;89.46
65207;SHT31;58477;48.072;11.970;2022-09-09T07:41:16;14.91;89.74
65207;SHT31;58477;48.072;11.970;2022-09-09T07:43:45;14.97;89.69
65207;SHT31;58477;48.072;11.970;2022-09-09T07:46:13;14.94;89.66
65207;SHT31;58477;48.072;11.970;2022-09-09T07:48:46;14.96;89.61
65207;SHT31;58477;48.072;11.970;2022-09-09T07:51:20;14.99;88.88
65207;SHT31;58477;48.072;11.970;2022-09-09T07:53:53;15.00;88.73
65207;SHT31;58477;48.072;11.970;2022-09-09T07:56:18;15.06;88.84
65207;SHT31;58477;48.072;11.970;2022-09-09T07:58:50;15.13;88.71
65207;SHT31;58477;48.072;11.970;2022-09-09T08:01:21;15.14;87.82
65207;SHT31;58477;48.072;11.970;2022-09-09T08:03:53;15.16;88.04
65207;SHT31;58477;48.072;11.970;2022-09-09T08:06:19;14.99;88.88
65207;SHT31;58477;48.072;11.970;2022-09-09T08:08:44;15.03;89.89
65207;SHT31;58477;48.072;11.970;2022-09-09T08:11:14;14.93;89.76
65207;SHT31;58477;48.072;11.970;2022-09-09T08:13:41;14.97;90.27
65207;SHT31;58477;48.072;11.970;2022-09-09T08:16:10;14.84;90.01
65207;SHT31;58477;48.072;11.970;2022-09-09T08:18:37;14.76;89.57
65207;SHT31;58477;48.072;11.970;2022-09-09T08:21:12;14.70;90.32
65207;SHT31;58477;48.072;11.970;2022-09-09T08:23:42;14.69;89.06
65207;SHT31;58477;48.072;11.970;2022-09-09T08:26:14;14.69;89.92
65207;SHT31;58477;48.072;11.970;2022-09-09T08:28:41;14.65;90.69
65207;SHT31;58477;48.072;11.970;2022-09-09T08:31:21;14.63;91.14
65207;SHT31;58477;48.072;11.970;2022-09-09T08:33:47;14.68;91.15
65207;SHT31;58477;48.072;11.970;2022-09-09T08:36:16;14.68;91.18
65207;SHT31;58477;48.072;11.970;2022-09-09T08:38:42;14.66;90.13
65207;SHT31;58477;48.072;11.970;2022-09-09T08:41:30;14.69;89.72
65207;SHT31;58477;48.072;11.970;2022-09-09T08:44:10;14.81;89.63
65207;SHT31;58477;48.072;11.970;2022-09-09T08:46:50;14.72;89.09
65207;SHT31;58477;48.072;11.970;2022-09-09T08:49:47;15.10;89.92
65207;SHT31;58477;48.072;11.970;2022-09-09T08:52:22;15.14;89.18
65207;SHT31;58477;48.072;11.970;2022-09-09T08:54:50;15.21;89.66
65207;SHT31;58477;48.072;11.970;2022-09-09T08:57:23;15.14;89.27
65207;SHT31;58477;48.072;11.970;2022-09-09T08:59:55;15.07;90.21
65207;SHT31;58477;48.072;11.970;2022-09-09T09:05:09;15.30;88.73
65207;SHT31;58477;48.072;11.970;2022-09-09T09:07:59;15.24;88.13
65207;SHT31;58477;48.072;11.970;2022-09-09T09:10:46;15.23;89.28
65207;SHT31;58477;48.072;11.970;2022-09-09T09:13:26;15.27;88.35
65207;SHT31;58477;48.072;11.970;2022-09-09T09:16:06;15.17;87.13
65207;SHT31;58477;48.072;11.970;2022-09-09T09:18:35;15.30;89.37
65207;SHT31;58477;48.072;11.970;2022-09-09T09:21:14;15.21;89.11
65207;SHT31;58477;48.072;11.970;2022-09-09T09:23:59;15.31;87.74
65207;SHT31;58477;48.072;11.970;2022-09-09T09:26:30;15.23;89.68
65207;SHT31;58477;48.072;11.970;2022-09-09T09:28:58;15.38;88.87
65207;SHT31;58477;48.072;11.970;2022-09-09T09:31:26;15.35;88.05
65207;SHT31;58477;48.072;11.970;2022-09-09T09:33:55;15.30;88.88
65207;SHT31;58477;48.072;11.970;2022-09-09T09:36:33;15.28;90.25
65207;SHT31;58477;48.072;11.970;2022-09-09T09:39:02;15.28;89.86
65207;SHT31;58477;48.072;11.970;2022-09-09T09:41:34;15.35;89.69
65207;SHT31;58477;48.072;11.970;2022-09-09T09:44:01;15.40;89.59
65207;SHT31;58477;48.072;11.970;2022-09-09T09:46:28;15.28;90.36
65207;SHT31;58477;48.072;11.970;2022-09-09T09:49:03;15.19;90.62
65207;SHT31;58477;48.072;11.970;2022-09-09T09:51:32;15.20;89.92
65207;SHT31;58477;48.072;11.970;2022-09-09T09:54:28;15.19;89.42
65207;SHT31;58477;48.072;11.970;2022-09-09T09:57:11;15.11;89.50
65207;SHT31;58477;48.072;11.970;2022-09-09T09:59:38;15.16;90.26
65207;SHT31;58477;48.072;11.970;2022-09-09T10:02:13;15.16;89.51
65207;SHT31;58477;48.072;11.970;2022-09-09T10:04:39;15.20;89.15
65207;SHT31;58477;48.072;11.970;2022-09-09T10:07:19;15.34;90.21
65207;SHT31;58477;48.072;11.970;2022-09-09T10:09:56;15.28;90.24
65207;SHT31;58477;48.072;11.970;2022-09-09T10:12:50;15.40;90.05
65207;SHT31;58477;48.072;11.970;2022-09-09T10:23:42;15.51;89.59
65207;SHT31;58477;48.072;11.970;2022-09-09T10:26:18;15.57;89.09
65207;SHT31;58477;48.072;11.970;2022-09-09T10:31:36;15.64;87.63
65207;SHT31;58477;48.072;11.970;2022-09-09T10:34:39;15.71;87.28
65207;SHT31;58477;48.072;11.970;2022-09-09T10:40:05;15.97;87.44
65207;SHT31;58477;48.072;11.970;2022-09-09T10:42:36;15.75;88.00
65207;SHT31;58477;48.072;11.970;2022-09-09T10:45:13;15.77;87.75
65207;SHT31;58477;48.072;11.970;2022-09-09T10:50:42;15.74;86.14
65207;SHT31;58477;48.072;11.970;2022-09-09T10:56:16;15.50;87.76
65207;SHT31;58477;48.072;11.970;2022-09-09T10:58:53;15.61;88.52
65207;SHT31;58477;48.072;11.970;2022-09-09T11:01:24;15.50;87.49
65207;SHT31;58477;48.072;11.970;2022-09-09T11:04:13;15.44;87.61
65207;SHT31;58477;48.072;11.970;2022-09-09T11:06:45;15.33;88.31
65207;SHT31;58477;48.072;11.970;2022-09-09T11:09:16;15.24;88.78
65207;SHT31;58477;48.072;11.970;2022-09-09T11:11:51;15.37;89.19
65207;SHT31;58477;48.072;11.970;2022-09-09T11:16:55;15.37;89.09
65207;SHT31;58477;48.072;11.970;2022-09-09T11:22:00;15.45;88.58
65207;SHT31;58477;48.072;11.970;2022-09-09T11:24:43;15.54;88.56
65207;SHT31;58477;48.072;11.970;2022-09-09T11:27:16;15.54;87.55
65207;SHT31;58477;48.072;11.970;2022-09-09T11:29:52;15.45;87.96
65207;SHT31;58477;48.072;11.970;2022-09-09T11:38:02;15.47;87.76
65207;SHT31;58477;48.072;11.970;2022-09-09T11:40:31;15.47;88.35
65207;SHT31;58477;48.072;11.970;2022-09-09T11:43:11;15.51;88.22
65207;SHT31;58477;48.072;11.970;2022-09-09T11:45:40;15.54;87.71
65207;SHT31;58477;48.072;11.970;2022-09-09T11:51:00;15.45;88.82
65207;SHT31;58477;48.072;11.970;2022-09-09T11:53:29;15.47;88.90
65207;SHT31;58477;48.072;11.970;2022-09-09T11:58:40;15.59;86.63
65207;SHT31;58477;48.072;11.970;2022-09-09T12:01:44;15.81;87.24
65207;SHT31;58477;48.072;11.970;2022-09-09T12:06:54;16.32;85.27
65207;SHT31;58477;48.072;11.970;2022-09-09T12:09:43;16.60;84.50
65207;SHT31;58477;48.072;11.970;2022-09-09T12:14:54;17.25;83.61
65207;SHT31;58477;48.072;11.970;2022-09-09T12:17:21;17.48;83.70
65207;SHT31;58477;48.072;11.970;2022-09-09T12:20:13;17.68;80.19
65207;SHT31;58477;48.072;11.970;2022-09-09T12:28:05;17.72;81.72
65207;SHT31;58477;48.072;11.970;2022-09-09T12:33:36;17.35;80.78
65207;SHT31;58477;48.072;11.970;2022-09-09T12:36:03;17.21;80.80
65207;SHT31;58477;48.072;11.970;2022-09-09T12:38:34;17.18;81.17
65207;SHT31;58477;48.072;11.970;2022-09-09T12:41:00;17.15;81.40
65207;SHT31;58477;48.072;11.970;2022-09-09T12:43:26;17.02;81.49
65207;SHT31;58477;48.072;11.970;2022-09-09T12:45:56;17.06;81.46
65207;SHT31;58477;48.072;11.970;2022-09-09T12:48:36;17.07;81.07
65207;SHT31;58477;48.072;11.970;2022-09-09T12:51:02;17.17;80.90
65207;SHT31;58477;48.072;11.970;2022-09-09T12:53:37;17.30;81.79
65207;SHT31;58477;48.072;11.970;2022-09-09T12:56:08;17.20;79.93
65207;SHT31;58477;48.072;11.970;2022-09-09T12:58:36;17.25;77.74
65207;SHT31;58477;48.072;11.970;2022-09-09T13:01:03;17.24;79.64
65207;SHT31;58477;48.072;11.970;2022-09-09T13:03:31;17.34;79.86
65207;SHT31;58477;48.072;11.970;2022-09-09T13:06:34;17.28;77.73
65207;SHT31;58477;48.072;11.970;2022-09-09T13:09:02;17.24;79.57
65207;SHT31;58477;48.072;11.970;2022-09-09T13:11:42;17.24;77.64
65207;SHT31;58477;48.072;11.970;2022-09-09T13:14:16;17.17;78.26
65207;SHT31;58477;48.072;11.970;2022-09-09T13:16:55;17.15;79.44
65207;SHT31;58477;48.072;11.970;2022-09-09T13:19:21;17.38;80.07
65207;SHT31;58477;48.072;11.970;2022-09-09T13:21:47;17.39;77.60
65207;SHT31;58477;48.072;11.970;2022-09-09T13:24:29;17.45;79.03
65207;SHT31;58477;48.072;11.970;2022-09-09T13:26:56;17.42;78.71
65207;SHT31;58477;48.072;11.970;2022-09-09T13:29:22;17.38;77.52
65207;SHT31;58477;48.072;11.970;2022-09-09T13:31:48;17.32;79.16
65207;SHT31;58477;48.072;11.970;2022-09-09T13:34:29;17.23;78.75
65207;SHT31;58477;48.072;11.970;2022-09-09T13:37:00;17.17;79.24
65207;SHT31;58477;48.072;11.970;2022-09-09T13:39:32;16.90;79.59
65207;SHT31;58477;48.072;11.970;2022-09-09T13:41:58;16.94;80.63
65207;SHT31;58477;48.072;11.970;2022-09-09T13:44:25;17.04;80.47
65207;SHT31;58477;48.072;11.970;2022-09-09T13:47:06;17.11;81.61
65207;SHT31;58477;48.072;11.970;2022-09-09T13:49:41;17.15;82.09
65207;SHT31;58477;48.072;11.970;2022-09-09T13:52:12;17.11;81.66
65207;SHT31;58477;48.072;11.970;2022-09-09T13:54:39;17.07;81.37
65207;SHT31;58477;48.072;11.970;2022-09-09T13:57:05;17.02;82.59
65207;SHT31;58477;48.072;11.970;2022-09-09T13:59:38;17.08;82.41
65207;SHT31;58477;48.072;11.970;2022-09-09T14:02:03;16.97;83.18
65207;SHT31;58477;48.072;11.970;2022-09-09T14:04:29;16.91;83.57
65207;SHT31;58477;48.072;11.970;2022-09-09T14:06:55;17.02;82.61
65207;SHT31;58477;48.072;11.970;2022-09-09T14:09:21;17.20;82.40
65207;SHT31;58477;48.072;11.970;2022-09-09T14:11:47;17.18;83.55
65207;SHT31;58477;48.072;11.970;2022-09-09T14:14:12;17.15;82.53
65207;SHT31;58477;48.072;11.970;2022-09-09T14:16:38;17.17;81.85
65207;SHT31;58477;48.072;11.970;2022-09-09T14:19:03;17.11;82.06
65207;SHT31;58477;48.072;11.970;2022-09-09T14:21:32;16.97;81.80
65207;SHT31;58477;48.072;11.970;2022-09-09T14:23:57;16.80;82.33
65207;SHT31;58477;48.072;11.970;2022-09-09T14:26:23;16.64;83.21
65207;SHT31;58477;48.072;11.970;2022-09-09T14:28:49;16.69;83.59
65207;SHT31;58477;48.072;11.970;2022-09-09T14:31:15;16.77;83.42
65207;SHT31;58477;48.072;11.970;2022-09-09T14:33:43;16.63;82.96
65207;SHT31;58477;48.072;11.970;2022-09-09T14:36:10;16.56;83.94
65207;SHT31;58477;48.072;11.970;2022-09-09T14:38:37;16.63;83.84
65207;SHT31;58477;48.072;11.970;2022-09-09T14:41:09;16.57;83.62
65207;SHT31;58477;48.072;11.970;2022-09-09T14:43:35;16.49;83.29
65207;SHT31;58477;48.072;11.970;2022-09-09T14:46:11;16.48;84.35
65207;SHT31;58477;48.072;11.970;2022-09-09T14:48:37;16.48;84.29
65207;SHT31;58477;48.072;11.970;2022-09-09T14:51:15;16.49;84.19
65207;SHT31;58477;48.072;11.970;2022-09-09T14:53:41;16.53;84.09
65207;SHT31;58477;48.072;11.970;2022-09-09T14:56:09;16.59;83.92
65207;SHT31;58477;48.072;11.970;2022-09-09T14:58:36;16.67;84.18
65207;SHT31;58477;48.072;11.970;2022-09-09T15:01:11;16.69;83.72
65207;SHT31;58477;48.072;11.970;2022-09-09T15:03:40;16.67;83.56
65207;SHT31;58477;48.072;11.970;2022-09-09T15:06:11;16.74;83.68
65207;SHT31;58477;48.072;11.970;2022-09-09T15:08:38;16.74;83.16
65207;SHT31;58477;48.072;11.970;2022-09-09T15:11:05;16.79;83.67
65207;SHT31;58477;48.072;11.970;2022-09-09T15:13:33;16.62;85.48
65207;SHT31;58477;48.072;11.970;2022-09-09T15:16:13;16.69;85.09
65207;SHT31;58477;48.072;11.970;2022-09-09T15:18:39;16.72;84.54
65207;SHT31;58477;48.072;11.970;2022-09-09T15:21:16;16.80;84.44
65207;SHT31;58477;48.072;11.970;2022-09-09T15:23:42;16.83;83.90
65207;SHT31;58477;48.072;11.970;2022-09-09T15:26:08;16.81;84.29
65207;SHT31;58477;48.072;11.970;2022-09-09T15:28:35;16.81;85.42
65207;SHT31;58477;48.072;11.970;2022-09-09T15:31:12;16.95;84.96
65207;SHT31;58477;48.072;11.970;2022-09-09T15:33:40;16.99;84.92
65207;SHT31;58477;48.072;11.970;2022-09-09T15:38:38;16.84;85.66
65207;SHT31;58477;48.072;11.970;2022-09-09T15:41:04;16.79;85.97
65207;SHT31;58477;48.072;11.970;2022-09-09T15:43:29;16.81;85.15
65207;SHT31;58477;48.072;11.970;2022-09-09T15:45:59;16.72;86.02
65207;SHT31;58477;48.072;11.970;2022-09-09T15:48:31;16.72;85.26
65207;SHT31;58477;48.072;11.970;2022-09-09T15:51:02;16.64;86.21
65207;SHT31;58477;48.072;11.970;2022-09-09T15:53:28;16.59;87.01
65207;SHT31;58477;48.072;11.970;2022-09-09T15:55:55;16.52;87.03
65207;SHT31;58477;48.072;11.970;2022-09-09T15:58:21;16.40;86.44
65207;SHT31;58477;48.072;11.970;2022-09-09T16:00:46;16.43;86.16
65207;SHT31;58477;48.072;11.970;2022-09-09T16:03:11;16.29;87.10
65207;SHT31;58477;48.072;11.970;2022-09-09T16:05:38;16.30;87.11
65207;SHT31;58477;48.072;11.970;2022-09-09T16:08:03;16.36;87.78
65207;SHT31;58477;48.072;11.970;2022-09-09T16:10:29;16.36;87.50
65207;SHT31;58477;48.072;11.970;2022-09-09T16:12:56;16.36;87.77
65207;SHT31;58477;48.072;11.970;2022-09-09T16:15:21;16.36;87.42
65207;SHT31;58477;48.072;11.970;2022-09-09T16:17:48;16.16;88.12
65207;SHT31;58477;48.072;11.970;2022-09-09T16:20:14;16.01;89.08
65207;SHT31;58477;48.072;11.970;2022-09-09T16:22:39;16.06;88.13
65207;SHT31;58477;48.072;11.970;2022-09-09T16:25:05;15.82;89.12
65207;SHT31;58477;48.072;11.970;2022-09-09T16:27:31;15.68;89.08
65207;SHT31;58477;48.072;11.970;2022-09-09T16:29:57;15.79;89.16
65207;SHT31;58477;48.072;11.970;2022-09-09T16:32:22;15.91;88.53
65207;SHT31;58477;48.072;11.970;2022-09-09T16:34:48;15.81;89.16
65207;SHT31;58477;48.072;11.970;2022-09-09T16:37:13;15.65;90.35
65207;SHT31;58477;48.072;11.970;2022-09-09T16:39:38;15.75;90.65
65207;SHT31;58477;48.072;11.970;2022-09-09T16:42:04;15.82;89.67
65207;SHT31;58477;48.072;11.970;2022-09-09T16:44:30;15.74;88.65
65207;SHT31;58477;48.072;11.970;2022-09-09T16:46:56;15.81;88.08
65207;SHT31;58477;48.072;11.970;2022-09-09T16:49:21;15.81;88.23
65207;SHT31;58477;48.072;11.970;2022-09-09T16:51:48;15.75;88.47
65207;SHT31;58477;48.072;11.970;2022-09-09T16:54:16;15.69;88.80
65207;SHT31;58477;48.072;11.970;2022-09-09T16:56:44;15.72;87.86
65207;SHT31;58477;48.072;11.970;2022-09-09T16:59:13;15.74;88.85
65207;SHT31;58477;48.072;11.970;2022-09-09T17:01:40;15.74;88.05
65207;SHT31;58477;48.072;11.970;2022-09-09T17:04:12;15.72;88.95
65207;SHT31;58477;48.072;11.970;2022-09-09T17:06:39;15.78;88.86
65207;SHT31;58477;48.072;11.970;2022-09-09T17:09:10;15.72;89.45